createdAt,value
2023-05-28T00:01:02.134Z,49
2023-05-28T00:06:03.755Z,49
2023-05-28T00:11:05.723Z,49
2023-05-28T00:16:06.260Z,49
2023-05-28T00:21:07.999Z,49
2023-05-28T00:26:09.170Z,49
2023-05-28T00:31:10.320Z,49
2023-05-28T00:36:11.846Z,49
2023-05-28T00:41:13.356Z,49
2023-05-28T00:46:14.618Z,49
2023-05-28T00:51:16.443Z,49
2023-05-28T00:56:17.910Z,49
2023-05-28T01:01:19.420Z,49
2023-05-28T01:06:21.356Z,49
2023-05-28T01:11:23.002Z,49
2023-05-28T01:16:25.148Z,49
2023-05-28T01:21:26.860Z,50
2023-05-28T01:26:29.002Z,50
2023-05-28T01:31:30.816Z,50
2023-05-28T01:36:32.028Z,50
2023-05-28T01:41:33.992Z,51
2023-05-28T01:46:35.804Z,51
2023-05-28T01:51:37.301Z,51
2023-05-28T01:56:39.452Z,51
2023-05-28T02:01:41.146Z,51
2023-05-28T02:06:42.872Z,51
2023-05-28T02:11:44.542Z,51
2023-05-28T02:16:46.593Z,52
2023-05-28T02:21:47.932Z,52
2023-05-28T02:26:49.263Z,52
2023-05-28T02:31:51.342Z,52
2023-05-28T02:36:53.159Z,52
2023-05-28T02:41:54.383Z,52
2023-05-28T02:46:55.758Z,53
2023-05-28T02:51:57.001Z,53
2023-05-28T02:56:58.419Z,53
2023-05-28T03:02:00.241Z,53
2023-05-28T03:07:02.183Z,54
2023-05-28T03:12:04.324Z,54
2023-05-28T03:17:05.895Z,54
2023-05-28T03:22:07.668Z,55
2023-05-28T03:27:09.194Z,54
2023-05-28T03:32:10.794Z,54
2023-05-28T03:37:12.887Z,55
2023-05-28T03:42:15.000Z,55
2023-05-28T03:47:16.601Z,55
2023-05-28T03:52:18.761Z,55
2023-05-28T03:57:20.556Z,55
2023-05-28T04:02:22.729Z,55
2023-05-28T04:07:24.200Z,55
2023-05-28T04:12:25.895Z,56
2023-05-28T04:17:27.576Z,56
2023-05-28T04:22:29.316Z,56
2023-05-28T04:27:30.572Z,57
2023-05-28T04:32:32.725Z,57
2023-05-28T04:37:33.902Z,57
2023-05-28T04:42:35.294Z,56
2023-05-28T04:47:36.661Z,56
2023-05-28T04:52:38.622Z,56
2023-05-28T04:57:40.141Z,55
2023-05-28T05:02:41.502Z,55
2023-05-28T05:07:43.421Z,55
2023-05-28T05:12:44.970Z,54
2023-05-28T05:17:46.549Z,54
2023-05-28T05:22:48.033Z,53
2023-05-28T05:27:49.732Z,52
2023-05-28T06:33:10.264Z,40
2023-05-28T06:48:15.517Z,39
2023-05-28T06:53:17.443Z,38
2023-05-28T07:03:20.836Z,39
2023-05-28T07:33:31.713Z,36
2023-05-28T08:13:43.957Z,33
2023-05-28T08:18:45.449Z,33
2023-05-28T08:33:50.208Z,32
2023-05-28T08:38:51.535Z,33
2023-05-28T08:43:53.569Z,32
2023-05-28T08:48:54.963Z,32
2023-05-28T08:53:56.541Z,31
2023-05-28T08:58:57.822Z,30
2023-05-28T09:03:59.816Z,30
2023-05-28T09:09:01.210Z,28
2023-05-28T09:14:02.625Z,29
2023-05-28T09:19:04.195Z,28
2023-05-28T09:24:06.093Z,28
2023-05-28T09:29:07.865Z,28
2023-05-28T09:34:09.720Z,27
2023-05-28T09:39:11.774Z,27
2023-05-28T09:44:13.272Z,27
2023-05-28T09:49:14.897Z,27
2023-05-28T09:54:16.392Z,27
2023-05-28T09:59:17.716Z,29
2023-05-28T10:04:19.464Z,27
2023-05-28T10:09:20.756Z,28
2023-05-28T10:14:22.333Z,27
2023-05-28T10:19:24.353Z,27
2023-05-28T10:24:25.547Z,28
2023-05-28T10:29:27.262Z,28
2023-05-28T10:34:28.568Z,27
2023-05-28T10:39:30.289Z,29
2023-05-28T10:44:32.162Z,29
2023-05-28T10:49:33.668Z,29
2023-05-28T10:54:35.504Z,28
2023-05-28T10:59:37.693Z,28
2023-05-28T11:04:39.693Z,30
2023-05-28T11:09:41.037Z,28
2023-05-28T11:14:42.790Z,28
2023-05-28T11:19:44.490Z,29
2023-05-28T11:24:45.914Z,29
2023-05-28T11:29:47.927Z,29
2023-05-28T11:34:49.591Z,28
2023-05-28T11:39:50.896Z,27
2023-05-28T11:44:52.194Z,27
2023-05-28T11:49:54.099Z,27
2023-05-28T11:54:56.296Z,28
2023-05-28T11:59:57.607Z,29
2023-05-28T12:04:59.078Z,28
2023-05-28T12:10:00.948Z,27
2023-05-28T12:15:02.861Z,28
2023-05-28T12:20:05.029Z,27
2023-05-28T12:25:07.018Z,28
2023-05-28T12:30:09.156Z,28
2023-05-28T12:35:10.327Z,28
2023-05-28T12:40:14.198Z,27
2023-05-28T12:45:14.162Z,26
2023-05-28T12:50:15.976Z,25
2023-05-28T12:55:17.783Z,26
2023-05-28T13:00:19.213Z,27
2023-05-28T13:05:26.212Z,26
2023-05-28T13:10:22.988Z,24
2023-05-28T13:15:24.296Z,25
2023-05-28T13:20:25.760Z,26
2023-05-28T13:25:27.219Z,26
2023-05-28T13:30:28.700Z,27
2023-05-28T13:35:29.895Z,27
2023-05-28T13:40:31.184Z,27
2023-05-28T13:45:32.610Z,27
2023-05-28T13:50:34.668Z,27
2023-05-28T13:55:36.864Z,27
2023-05-28T14:00:39.517Z,27
2023-05-28T14:05:40.188Z,27
2023-05-28T14:10:42.039Z,27
2023-05-28T14:15:43.636Z,27
2023-05-28T14:20:45.680Z,27
2023-05-28T14:25:47.085Z,27
2023-05-28T14:30:48.496Z,26
2023-05-28T14:35:51.234Z,27
2023-05-28T14:40:52.147Z,27
2023-05-28T14:46:00.401Z,27
2023-05-28T14:51:02.040Z,27
2023-05-28T14:56:04.085Z,27
2023-05-28T15:01:06.010Z,26
2023-05-28T15:06:07.860Z,26
2023-05-28T15:11:09.071Z,26
2023-05-28T15:16:10.416Z,26
2023-05-28T15:21:11.814Z,27
2023-05-28T15:26:13.674Z,26
2023-05-28T15:31:15.798Z,26
2023-05-28T15:36:17.280Z,26
2023-05-28T15:41:19.200Z,27
2023-05-28T15:46:20.439Z,26
2023-05-28T15:51:21.687Z,26
2023-05-28T15:56:23.229Z,26
2023-05-28T16:01:25.338Z,25
2023-05-28T16:06:27.417Z,24
2023-05-28T16:11:29.258Z,25
2023-05-28T16:16:30.896Z,24
2023-05-28T16:21:33.006Z,25
2023-05-28T16:26:34.664Z,26
2023-05-28T16:31:36.425Z,25
2023-05-28T16:36:38.554Z,25
2023-05-28T16:41:39.881Z,25
2023-05-28T16:46:41.480Z,26
2023-05-28T16:51:43.363Z,26
2023-05-28T16:56:45.204Z,27
2023-05-28T17:01:46.545Z,26
2023-05-28T17:06:48.302Z,26
2023-05-28T17:11:49.953Z,26
2023-05-28T17:16:51.298Z,26
2023-05-28T17:21:52.624Z,27
2023-05-28T17:26:54.315Z,26
2023-05-28T17:31:56.045Z,26
2023-05-28T17:36:58.021Z,27
2023-05-28T17:41:59.247Z,27
2023-05-28T17:47:00.432Z,27
2023-05-28T17:52:01.861Z,26
2023-05-28T17:57:03.092Z,26
2023-05-28T18:02:04.864Z,27
2023-05-28T18:07:06.189Z,27
2023-05-28T18:12:08.215Z,27
2023-05-28T18:17:10.219Z,28
2023-05-28T18:22:12.314Z,28
2023-05-28T18:27:13.768Z,28
2023-05-28T18:32:15.655Z,28
2023-05-28T18:37:17.329Z,29
2023-05-28T18:42:18.831Z,31
2023-05-28T18:47:20.528Z,31
2023-05-28T18:52:22.607Z,31
2023-05-28T18:57:24.420Z,31
2023-05-28T19:02:26.224Z,31
2023-05-28T19:07:27.769Z,32
2023-05-28T19:12:29.880Z,33
2023-05-28T19:17:31.941Z,33
2023-05-28T19:22:33.196Z,33
2023-05-28T19:27:34.490Z,34
2023-05-28T19:32:36.435Z,34
2023-05-28T19:37:37.750Z,34
2023-05-28T19:42:39.412Z,35
2023-05-28T19:47:41.120Z,34
2023-05-28T19:52:42.824Z,35
2023-05-28T19:57:44.769Z,35
2023-05-28T20:02:46.280Z,35
2023-05-28T20:07:48.394Z,35
2023-05-28T20:17:51.371Z,36
2023-05-28T20:32:56.127Z,38
2023-05-28T20:37:57.461Z,38
2023-05-28T21:33:16.677Z,42
2023-05-28T21:48:22.194Z,43
2023-05-28T21:58:25.580Z,43
2023-05-28T22:18:32.176Z,45
2023-05-28T22:28:36.726Z,46
2023-05-28T23:13:51.060Z,46
2023-05-28T23:18:52.946Z,46
2023-05-28T23:23:54.316Z,46
2023-05-28T23:28:56.331Z,46
2023-05-28T23:33:58.380Z,46
2023-05-28T23:38:59.784Z,47
2023-05-28T23:44:01.401Z,47
2023-05-28T23:49:03.309Z,47
2023-05-28T23:54:04.529Z,48
2023-05-28T23:59:06.369Z,48
